Time;durP1;ratioP1;P1;durP2;ratioP2;P2;SDS_P1;SDS_P2;PMS_P1;PMS_P2;Temp;Humidity;BMP_temperature;BMP_pressure;BME280_temperature;BME280_humidity;BME280_pressure;Samples;Min_cycle;Max_cycle;Signal;HPM_P1;HPM_P2
2021/12/29 00:00:44;;;;;;;11.07;1.10;;;7.30;99.90;;;;;;4988781;28;20041;-74
2021/12/29 00:03:10;;;;;;;11.45;1.30;;;7.30;99.90;;;;;;4990647;28;20042;-74
2021/12/29 00:05:36;;;;;;;11.70;1.40;;;7.30;99.90;;;;;;4988217;28;20041;-74
2021/12/29 00:08:03;;;;;;;17.48;3.80;;;7.30;99.90;;;;;;4990938;28;20045;-74
2021/12/29 00:10:29;;;;;;;9.57;1.50;;;7.20;99.90;;;;;;4988211;28;20042;-76
2021/12/29 00:12:55;;;;;;;9.98;1.33;;;7.30;99.90;;;;;;4990103;28;20033;-74
2021/12/29 00:15:26;;;;;;;8.43;1.27;;;7.20;99.90;;;;;;4990639;28;20529;-74
2021/12/29 00:17:52;;;;;;;12.02;1.50;;;7.20;99.90;;;;;;4988266;28;20042;-73
2021/12/29 00:20:22;;;;;;;9.07;1.80;;;7.20;99.90;;;;;;4988920;28;20038;-74
2021/12/29 00:22:48;;;;;;;5.20;0.75;;;7.30;99.90;;;;;;4989054;28;20693;-74
2021/12/29 00:25:14;;;;;;;8.68;1.30;;;7.20;99.90;;;;;;4990457;28;20045;-74
2021/12/29 00:27:41;;;;;;;7.47;1.85;;;7.30;99.90;;;;;;4987955;28;20081;-73
2021/12/29 00:30:10;;;;;;;11.32;1.23;;;7.30;99.90;;;;;;4989622;28;20372;-74
2021/12/29 00:32:36;;;;;;;10.85;1.48;;;7.30;99.90;;;;;;4988690;28;20514;-74
2021/12/29 00:35:03;;;;;;;8.30;1.15;;;7.30;99.90;;;;;;4989933;28;20114;-74
2021/12/29 00:37:28;;;;;;;9.43;1.60;;;7.30;99.90;;;;;;4989503;28;20065;-76
2021/12/29 00:39:54;;;;;;;13.35;1.30;;;7.30;99.90;;;;;;4989336;28;20034;-74
2021/12/29 00:42:20;;;;;;;6.05;1.23;;;7.30;99.90;;;;;;4988584;28;20042;-74
2021/12/29 00:44:46;;;;;;;12.07;1.73;;;7.30;99.90;;;;;;4987476;28;20026;-74
2021/12/29 00:47:12;;;;;;;12.60;1.38;;;7.30;99.90;;;;;;4989626;28;20383;-74
2021/12/29 00:49:38;;;;;;;9.57;1.50;;;7.30;99.90;;;;;;4987683;28;20038;-73
2021/12/29 00:52:07;;;;;;;8.73;1.30;;;7.30;99.90;;;;;;4990042;28;20069;-74
2021/12/29 00:54:35;;;;;;;8.77;0.98;;;7.30;99.90;;;;;;4987607;28;20057;-73
2021/12/29 00:57:00;;;;;;;7.78;1.23;;;7.30;99.90;;;;;;4989734;28;20027;-72
2021/12/29 00:59:26;;;;;;;7.18;1.20;;;7.30;99.90;;;;;;4989331;28;20038;-74
2021/12/29 01:01:52;;;;;;;12.77;1.08;;;7.20;99.90;;;;;;4987835;28;20097;-72
2021/12/29 01:04:19;;;;;;;9.63;1.15;;;7.20;99.90;;;;;;4988618;28;20400;-74
2021/12/29 01:06:45;;;;;;;10.52;0.80;;;7.20;99.90;;;;;;4988908;28;20046;-73
2021/12/29 01:09:11;;;;;;;12.48;1.55;;;7.20;99.90;;;;;;4989782;28;20057;-73
2021/12/29 01:11:37;;;;;;;9.55;1.30;;;7.20;99.90;;;;;;4988189;28;20068;-75
2021/12/29 01:14:04;;;;;;;9.85;1.30;;;7.20;99.90;;;;;;4989279;28;20027;-74
2021/12/29 01:19:24;;;;;;;12.88;1.55;;;7.20;99.90;;;;;;4989702;28;20390;-74
2021/12/29 01:21:53;;;;;;;6.05;1.13;;;7.20;99.90;;;;;;4983456;28;20507;-74
2021/12/29 01:24:21;;;;;;;9.18;0.70;;;7.20;99.90;;;;;;4988860;28;20030;-75
2021/12/29 01:26:48;;;;;;;7.30;0.80;;;7.20;99.90;;;;;;4988466;28;20062;-74
2021/12/29 01:29:15;;;;;;;7.18;0.80;;;7.20;99.90;;;;;;4988834;28;20511;-75
2021/12/29 01:31:41;;;;;;;14.75;1.48;;;7.20;99.90;;;;;;4988241;28;20054;-74
2021/12/29 01:34:08;;;;;;;7.82;0.90;;;7.20;99.90;;;;;;4989067;28;20042;-74
2021/12/29 01:36:37;;;;;;;8.93;0.88;;;7.20;99.90;;;;;;4987112;28;20415;-76
2021/12/29 01:39:14;;;;;;;9.38;0.90;;;7.20;99.90;;;;;;4989109;28;20070;-74
2021/12/29 01:41:42;;;;;;;6.55;0.93;;;7.30;99.90;;;;;;4986912;28;20061;-74
2021/12/29 01:44:09;;;;;;;6.82;0.75;;;7.30;99.90;;;;;;4988739;28;20266;-75
2021/12/29 01:46:35;;;;;;;7.22;0.70;;;7.30;99.90;;;;;;4988387;28;20023;-76
2021/12/29 01:49:01;;;;;;;5.10;0.65;;;7.30;99.90;;;;;;4988944;28;20092;-74
2021/12/29 01:51:29;;;;;;;7.55;0.77;;;7.30;99.90;;;;;;4988898;28;20109;-74
2021/12/29 01:54:04;;;;;;;8.68;0.85;;;7.30;99.90;;;;;;4987076;28;20917;-74
2021/12/29 01:56:32;;;;;;;11.80;0.88;;;7.30;99.90;;;;;;4988576;28;20054;-74
2021/12/29 01:58:57;;;;;;;9.93;0.95;;;7.30;99.90;;;;;;4987985;28;20109;-75
2021/12/29 02:01:24;;;;;;;8.40;1.00;;;7.40;99.90;;;;;;4989038;28;20540;-74
2021/12/29 02:03:52;;;;;;;7.25;0.70;;;7.30;99.90;;;;;;4988295;28;20030;-73
2021/12/29 02:06:18;;;;;;;9.23;0.63;;;7.30;99.90;;;;;;4989134;28;20031;-73
2021/12/29 02:08:44;;;;;;;4.68;0.88;;;7.30;99.90;;;;;;4988197;28;20053;-75
2021/12/29 02:11:10;;;;;;;4.55;0.60;;;7.30;99.90;;;;;;4988667;28;20030;-74
2021/12/29 02:13:35;;;;;;;9.77;1.00;;;7.30;99.90;;;;;;4988400;28;20030;-76
2021/12/29 02:16:01;;;;;;;8.85;1.10;;;7.30;99.90;;;;;;4988412;28;20070;-74
2021/12/29 02:18:27;;;;;;;7.05;1.20;;;7.20;99.90;;;;;;4988519;28;20580;-74
2021/12/29 02:20:54;;;;;;;6.32;1.08;;;7.20;99.90;;;;;;4988431;28;20073;-75
2021/12/29 02:23:35;;;;;;;4.22;0.70;;;7.20;99.90;;;;;;4990730;28;20097;-74
2021/12/29 02:26:02;;;;;;;5.15;0.88;;;7.20;99.90;;;;;;4992250;28;20019;-73
2021/12/29 02:28:34;;;;;;;4.55;0.60;;;7.20;99.90;;;;;;4990344;28;20054;-73
2021/12/29 02:31:00;;;;;;;8.02;0.70;;;7.10;99.90;;;;;;4991379;28;20089;-73
2021/12/29 02:33:30;;;;;;;4.50;1.00;;;7.20;99.90;;;;;;4992742;28;20497;-74
2021/12/29 02:35:57;;;;;;;6.60;0.80;;;7.20;99.90;;;;;;4991284;28;20112;-74
2021/12/29 02:38:34;;;;;;;5.65;1.10;;;7.10;99.90;;;;;;4992601;28;20146;-74
2021/12/29 02:41:08;;;;;;;8.82;0.85;;;7.10;99.90;;;;;;4991383;28;20078;-75
2021/12/29 02:43:37;;;;;;;6.88;0.77;;;7.10;99.90;;;;;;4991891;28;20034;-77
2021/12/29 02:46:11;;;;;;;4.25;0.57;;;7.10;99.90;;;;;;5002850;28;20113;-74
2021/12/29 02:48:41;;;;;;;8.98;0.77;;;7.10;99.90;;;;;;5001504;28;20046;-76
2021/12/29 02:51:08;;;;;;;4.20;0.47;;;7.10;99.90;;;;;;4992203;28;20140;-74
2021/12/29 02:53:35;;;;;;;4.90;0.80;;;7.10;99.90;;;;;;5006411;28;20038;-74
2021/12/29 02:56:02;;;;;;;5.05;0.70;;;7.10;99.90;;;;;;4991438;28;20037;-74
2021/12/29 02:58:28;;;;;;;6.07;0.73;;;7.10;99.90;;;;;;4989539;28;20038;-74
2021/12/29 03:00:56;;;;;;;5.78;0.85;;;7.10;99.90;;;;;;4979019;28;20033;-74
2021/12/29 03:03:24;;;;;;;3.60;0.45;;;7.10;99.90;;;;;;4992374;28;20034;-74
2021/12/29 03:05:51;;;;;;;3.92;0.70;;;7.10;99.90;;;;;;4990976;28;20049;-74
2021/12/29 03:08:18;;;;;;;9.63;0.77;;;7.10;99.90;;;;;;4991105;28;20045;-73
2021/12/29 03:10:45;;;;;;;2.75;0.40;;;7.10;99.90;;;;;;4991161;28;20038;-74
2021/12/29 03:13:11;;;;;;;6.20;0.85;;;7.10;99.90;;;;;;4991927;28;20522;-74
2021/12/29 03:15:38;;;;;;;5.03;0.60;;;7.10;99.90;;;;;;4991522;28;20034;-76
2021/12/29 03:18:05;;;;;;;5.10;1.80;;;7.10;99.90;;;;;;4990926;28;20120;-74
2021/12/29 03:20:31;;;;;;;5.57;0.75;;;7.10;99.90;;;;;;4991088;28;20531;-73
2021/12/29 03:22:58;;;;;;;2.17;0.60;;;7.10;99.90;;;;;;4990401;28;20026;-74
2021/12/29 03:25:24;;;;;;;2.92;0.45;;;7.10;99.90;;;;;;4991040;28;20117;-74
2021/12/29 03:27:51;;;;;;;4.22;0.75;;;7.10;99.90;;;;;;4989183;28;20038;-74
2021/12/29 03:30:17;;;;;;;4.05;0.40;;;7.10;99.90;;;;;;4990956;28;20053;-74
2021/12/29 03:32:48;;;;;;;1.58;0.40;;;7.20;99.90;;;;;;5003616;28;20105;-75
2021/12/29 03:35:14;;;;;;;3.60;0.60;;;7.20;99.90;;;;;;4988576;28;20483;-74
2021/12/29 03:37:39;;;;;;;2.05;0.30;;;7.10;99.90;;;;;;4990491;28;20089;-76
2021/12/29 03:40:06;;;;;;;6.72;0.88;;;7.20;99.90;;;;;;4990627;28;20046;-74
2021/12/29 03:42:32;;;;;;;5.22;0.63;;;7.20;99.90;;;;;;4990736;28;20466;-75
2021/12/29 03:44:58;;;;;;;6.72;0.68;;;7.20;99.90;;;;;;4990592;28;20053;-76
2021/12/29 03:47:24;;;;;;;1.50;0.43;;;7.30;99.90;;;;;;4990962;28;20034;-74
2021/12/29 03:49:49;;;;;;;3.20;0.40;;;7.20;99.90;;;;;;4990449;28;20045;-74
2021/12/29 03:52:15;;;;;;;5.72;0.50;;;7.20;99.90;;;;;;4990609;28;20463;-74
2021/12/29 03:54:41;;;;;;;4.32;0.60;;;7.20;99.90;;;;;;4989097;28;20741;-76
2021/12/29 03:57:07;;;;;;;3.85;0.43;;;7.30;99.90;;;;;;4988885;28;20038;-74
2021/12/29 03:59:32;;;;;;;3.15;0.60;;;7.20;99.90;;;;;;4970123;28;20628;-74
2021/12/29 04:01:59;;;;;;;2.92;0.57;;;7.20;99.90;;;;;;4995258;28;20042;-74
2021/12/29 04:04:24;;;;;;;5.70;0.85;;;7.20;99.90;;;;;;4990930;28;20026;-75
2021/12/29 04:06:50;;;;;;;3.92;0.50;;;7.20;99.90;;;;;;4989048;28;20057;-74
2021/12/29 04:09:16;;;;;;;7.78;1.67;;;7.20;99.90;;;;;;4989303;28;20039;-75
2021/12/29 04:11:42;;;;;;;3.00;0.82;;;7.20;99.90;;;;;;4989985;28;20475;-75
2021/12/29 04:14:07;;;;;;;1.90;0.75;;;7.20;99.90;;;;;;4990188;28;20282;-74
2021/12/29 04:16:37;;;;;;;1.05;0.43;;;7.20;99.90;;;;;;5000629;28;20417;-74
2021/12/29 04:19:13;;;;;;;5.28;0.80;;;7.20;99.90;;;;;;5007968;28;20851;-74
2021/12/29 04:21:41;;;;;;;6.25;0.70;;;7.20;99.90;;;;;;4995370;28;20062;-74
2021/12/29 04:24:07;;;;;;;6.85;0.95;;;7.20;99.90;;;;;;4990356;28;20076;-74
2021/12/29 04:26:36;;;;;;;4.95;0.68;;;7.20;99.90;;;;;;4989578;28;20034;-74
2021/12/29 04:29:03;;;;;;;5.07;0.82;;;7.20;99.90;;;;;;4988365;28;20034;-73
2021/12/29 04:31:28;;;;;;;5.50;1.42;;;7.20;99.90;;;;;;4988961;28;20035;-75
2021/12/29 04:33:54;;;;;;;4.65;1.17;;;7.20;99.90;;;;;;4989026;28;20041;-74
2021/12/29 04:36:24;;;;;;;2.60;0.80;;;7.20;99.90;;;;;;4988306;28;20050;-74
2021/12/29 04:38:54;;;;;;;4.95;1.10;;;7.20;99.90;;;;;;4989554;28;20038;-74
2021/12/29 04:41:20;;;;;;;1.92;0.60;;;7.20;99.90;;;;;;4988520;28;20463;-73
2021/12/29 04:43:46;;;;;;;2.05;0.50;;;7.20;99.90;;;;;;4989120;28;20034;-73
2021/12/29 04:46:17;;;;;;;3.72;0.77;;;7.20;99.90;;;;;;4989233;28;20028;-74
2021/12/29 04:48:51;;;;;;;4.05;0.77;;;7.20;99.90;;;;;;4990029;28;20109;-75
2021/12/29 04:51:24;;;;;;;2.35;0.50;;;7.20;99.90;;;;;;4986851;28;20034;-72
2021/12/29 04:53:50;;;;;;;3.22;0.55;;;7.20;99.90;;;;;;4989262;28;20028;-75
2021/12/29 04:56:16;;;;;;;3.90;0.90;;;7.20;99.90;;;;;;4989862;28;20084;-74
2021/12/29 04:58:42;;;;;;;3.10;1.08;;;7.20;99.90;;;;;;4990166;28;20478;-75
2021/12/29 05:01:08;;;;;;;3.00;0.50;;;7.20;99.90;;;;;;4988652;28;20042;-73
2021/12/29 05:03:38;;;;;;;3.40;0.80;;;7.30;99.90;;;;;;4987860;28;20072;-73
2021/12/29 05:08:32;;;;;;;2.08;0.50;;;7.40;99.90;;;;;;4970388;28;20054;-74
2021/12/29 05:11:00;;;;;;;1.40;0.43;;;7.40;99.90;;;;;;4978294;28;20034;-74
2021/12/29 05:13:32;;;;;;;3.55;0.50;;;7.40;99.90;;;;;;4989600;28;20026;-73
2021/12/29 05:15:58;;;;;;;2.33;0.52;;;7.50;99.90;;;;;;4988398;28;20458;-73
2021/12/29 05:18:26;;;;;;;2.15;0.50;;;7.50;99.90;;;;;;4989178;28;20042;-73
2021/12/29 05:20:52;;;;;;;2.53;0.52;;;7.50;99.90;;;;;;4988300;28;20037;-74
2021/12/29 05:23:18;;;;;;;4.63;0.60;;;7.50;99.90;;;;;;4989446;28;20034;-73
2021/12/29 05:25:44;;;;;;;1.33;0.40;;;7.50;99.90;;;;;;4988746;28;20037;-74
2021/12/29 05:28:10;;;;;;;3.05;0.30;;;7.50;99.90;;;;;;4994436;28;20084;-77
2021/12/29 05:30:36;;;;;;;2.95;0.40;;;7.40;99.90;;;;;;4994919;28;20041;-76
2021/12/29 05:33:03;;;;;;;2.28;0.40;;;7.40;99.90;;;;;;4996332;28;20029;-76
2021/12/29 05:35:29;;;;;;;2.22;0.30;;;7.50;99.90;;;;;;5001203;28;20096;-76
2021/12/29 05:37:56;;;;;;;3.47;0.40;;;7.40;99.90;;;;;;4989074;28;20054;-75
2021/12/29 05:40:22;;;;;;;0.90;0.20;;;7.40;99.90;;;;;;4987845;28;20034;-77
2021/12/29 05:42:48;;;;;;;1.77;0.30;;;7.50;99.90;;;;;;4988590;28;20109;-77
2021/12/29 05:45:16;;;;;;;1.48;0.13;;;7.40;99.90;;;;;;4989430;28;20138;-77
2021/12/29 05:47:43;;;;;;;0.77;0.20;;;7.40;99.90;;;;;;4987380;28;20038;-77
2021/12/29 05:50:13;;;;;;;2.60;0.30;;;7.30;99.90;;;;;;4993124;28;20128;-75
2021/12/29 05:52:38;;;;;;;0.65;0.25;;;7.40;99.90;;;;;;4993038;28;20182;-76
2021/12/29 05:55:05;;;;;;;2.17;0.40;;;7.40;99.90;;;;;;4990411;28;20113;-77
2021/12/29 05:57:31;;;;;;;2.55;0.45;;;7.40;99.90;;;;;;4989145;28;20569;-76
2021/12/29 05:59:57;;;;;;;0.40;0.20;;;7.40;99.90;;;;;;5007477;28;20038;-76
2021/12/29 06:02:23;;;;;;;0.65;0.20;;;7.40;99.90;;;;;;4993775;28;20042;-77
2021/12/29 06:04:48;;;;;;;0.73;0.20;;;7.40;99.90;;;;;;4995595;28;20426;-75
2021/12/29 06:07:14;;;;;;;2.13;0.30;;;7.40;99.90;;;;;;4991547;28;20042;-78
2021/12/29 06:09:40;;;;;;;3.45;0.30;;;7.30;99.90;;;;;;4993490;28;20113;-80
2021/12/29 06:12:07;;;;;;;2.50;0.25;;;7.30;99.90;;;;;;4993928;28;20323;-78
2021/12/29 06:14:32;;;;;;;2.40;0.30;;;7.30;99.90;;;;;;4985047;28;20041;-76
2021/12/29 06:16:58;;;;;;;1.75;0.40;;;7.30;99.90;;;;;;4982719;28;20067;-79
2021/12/29 06:19:24;;;;;;;0.50;0.20;;;7.30;99.90;;;;;;4985902;28;20483;-78
2021/12/29 06:21:49;;;;;;;2.28;0.30;;;7.30;99.90;;;;;;4987887;28;20101;-77
2021/12/29 06:24:15;;;;;;;1.13;0.20;;;7.30;99.90;;;;;;4991581;28;20043;-80
2021/12/29 06:26:41;;;;;;;0.50;0.22;;;7.30;99.90;;;;;;4988747;28;20047;-79
2021/12/29 06:29:07;;;;;;;2.00;0.50;;;7.30;99.90;;;;;;4990747;28;20039;-78
2021/12/29 06:31:33;;;;;;;5.88;0.43;;;7.30;99.90;;;;;;4992508;28;20027;-77
2021/12/29 06:33:59;;;;;;;1.27;0.30;;;7.30;99.90;;;;;;5001010;28;20034;-80
2021/12/29 06:36:25;;;;;;;0.43;0.20;;;7.30;99.90;;;;;;4992819;28;20137;-76
2021/12/29 06:38:51;;;;;;;3.63;0.40;;;7.30;99.90;;;;;;4998261;28;20125;-75
2021/12/29 06:41:17;;;;;;;1.50;0.60;;;7.30;99.90;;;;;;5011456;28;20034;-74
2021/12/29 06:43:43;;;;;;;1.08;0.30;;;7.30;99.90;;;;;;4996678;28;20030;-78
2021/12/29 06:46:09;;;;;;;1.10;0.43;;;7.30;99.90;;;;;;4989720;28;20542;-75
2021/12/29 06:48:34;;;;;;;0.10;0.10;;;7.30;99.90;;;;;;4986868;28;20470;-77
2021/12/29 06:51:00;;;;;;;0.98;0.30;;;7.30;99.90;;;;;;4989631;28;20026;-77
2021/12/29 06:53:29;;;;;;;0.20;0.13;;;7.30;99.90;;;;;;4991674;28;20490;-77
2021/12/29 06:55:55;;;;;;;1.27;0.30;;;7.30;99.90;;;;;;4990645;28;20107;-77
2021/12/29 06:58:21;;;;;;;2.60;0.20;;;7.40;99.90;;;;;;4991440;28;20030;-77
2021/12/29 07:00:47;;;;;;;0.65;0.13;;;7.30;99.90;;;;;;4991830;28;20526;-76
2021/12/29 07:03:12;;;;;;;1.10;0.10;;;7.30;99.90;;;;;;4990910;28;20053;-76
2021/12/29 07:05:39;;;;;;;0.35;0.10;;;7.40;99.90;;;;;;4991082;28;20110;-75
2021/12/29 07:08:05;;;;;;;0.03;0.00;;;7.40;99.90;;;;;;4988390;28;20042;-77
2021/12/29 07:10:31;;;;;;;0.30;0.00;;;7.30;99.90;;;;;;4991389;28;20583;-77
2021/12/29 07:12:56;;;;;;;0.35;0.10;;;7.30;99.90;;;;;;4990734;28;20041;-76
2021/12/29 07:15:22;;;;;;;0.65;0.10;;;7.30;99.90;;;;;;4990701;28;20038;-76
2021/12/29 07:17:48;;;;;;;0.10;0.00;;;7.30;99.90;;;;;;4989978;28;20473;-78
2021/12/29 07:20:13;;;;;;;0.95;0.10;;;7.30;99.90;;;;;;4998368;28;20033;-75
2021/12/29 07:22:40;;;;;;;2.10;0.20;;;7.30;99.90;;;;;;4989394;28;20172;-75
2021/12/29 07:25:05;;;;;;;0.25;0.10;;;7.30;99.90;;;;;;4989661;28;20121;-77
2021/12/29 07:27:31;;;;;;;0.40;0.10;;;7.30;99.90;;;;;;4990069;28;20415;-78
2021/12/29 07:29:57;;;;;;;0.70;0.30;;;7.30;99.90;;;;;;4989260;28;20034;-76
2021/12/29 07:32:22;;;;;;;0.52;0.25;;;7.20;99.90;;;;;;4990895;28;20046;-78
2021/12/29 07:34:48;;;;;;;1.13;0.50;;;7.30;99.90;;;;;;4989539;28;20549;-76
2021/12/29 07:37:14;;;;;;;2.25;0.70;;;7.20;99.90;;;;;;4989773;28;20176;-77
2021/12/29 07:39:40;;;;;;;1.92;0.85;;;7.30;99.90;;;;;;4991713;28;20034;-77
2021/12/29 07:42:07;;;;;;;4.55;1.00;;;7.30;99.90;;;;;;4991378;28;20061;-78
2021/12/29 07:44:33;;;;;;;1.90;1.10;;;7.30;99.90;;;;;;4990507;28;20057;-76
2021/12/29 07:46:59;;;;;;;4.13;1.65;;;7.30;99.90;;;;;;4991885;28;20034;-77
2021/12/29 07:49:26;;;;;;;2.45;1.10;;;7.30;99.90;;;;;;4990361;28;20391;-78
2021/12/29 07:51:52;;;;;;;5.68;1.83;;;7.30;99.90;;;;;;4988617;28;20026;-77
2021/12/29 07:54:19;;;;;;;3.22;1.30;;;7.30;99.90;;;;;;4990791;28;20042;-77
2021/12/29 07:56:45;;;;;;;3.22;1.02;;;7.30;99.90;;;;;;4990726;28;20037;-76
2021/12/29 07:59:11;;;;;;;4.10;1.08;;;7.30;99.90;;;;;;4989258;28;20428;-78
2021/12/29 08:01:39;;;;;;;5.38;1.30;;;7.30;99.90;;;;;;4990963;28;20073;-77
2021/12/29 08:04:05;;;;;;;2.97;1.20;;;7.30;99.90;;;;;;4989289;28;20109;-77
2021/12/29 08:06:31;;;;;;;6.53;1.02;;;7.30;99.90;;;;;;4991131;28;20590;-75
2021/12/29 08:08:57;;;;;;;4.22;1.50;;;7.30;99.90;;;;;;4989726;28;20072;-75
2021/12/29 08:11:23;;;;;;;5.97;1.27;;;7.30;99.90;;;;;;4989868;28;20046;-76
2021/12/29 08:13:49;;;;;;;4.43;1.27;;;7.30;99.90;;;;;;4988825;28;20037;-76
2021/12/29 08:16:14;;;;;;;4.53;1.58;;;7.30;99.90;;;;;;4989224;28;20483;-77
2021/12/29 08:18:40;;;;;;;4.43;0.90;;;7.30;99.90;;;;;;4991002;28;20037;-76
2021/12/29 08:21:06;;;;;;;5.55;0.90;;;7.40;99.90;;;;;;4983362;28;20034;-73
2021/12/29 08:23:32;;;;;;;3.03;1.00;;;7.40;99.90;;;;;;4990789;28;20463;-75
2021/12/29 08:25:59;;;;;;;6.95;1.40;;;7.40;99.90;;;;;;4988641;28;20045;-74
2021/12/29 08:28:25;;;;;;;6.20;1.42;;;7.40;99.90;;;;;;4994738;28;20068;-77
2021/12/29 08:30:53;;;;;;;4.68;1.30;;;7.50;99.90;;;;;;4993930;28;20034;-77
2021/12/29 08:33:19;;;;;;;6.03;1.48;;;7.50;99.90;;;;;;4988642;28;20198;-77
2021/12/29 08:35:45;;;;;;;4.97;1.50;;;7.50;99.90;;;;;;4988356;28;20434;-75
2021/12/29 08:38:10;;;;;;;5.45;1.60;;;7.50;99.90;;;;;;4972281;28;20066;-77
2021/12/29 08:40:36;;;;;;;7.85;1.40;;;7.60;99.90;;;;;;4961397;28;20041;-73
2021/12/29 08:43:03;;;;;;;7.10;1.45;;;7.60;99.90;;;;;;4969174;28;20471;-78
2021/12/29 08:45:31;;;;;;;5.60;1.15;;;7.60;99.90;;;;;;4970585;28;20035;-78
2021/12/29 08:47:58;;;;;;;3.70;0.90;;;7.60;99.90;;;;;;4970371;28;20476;-76
2021/12/29 08:50:29;;;;;;;2.83;1.10;;;7.60;99.90;;;;;;4962679;28;20564;-78
2021/12/29 08:52:56;;;;;;;6.43;1.85;;;7.60;99.90;;;;;;4976750;28;20034;-77
2021/12/29 08:55:22;;;;;;;7.35;1.70;;;7.60;99.90;;;;;;4969557;28;20035;-78
2021/12/29 08:57:48;;;;;;;7.10;1.65;;;7.60;99.90;;;;;;4970420;28;20514;-76
2021/12/29 09:00:16;;;;;;;3.75;1.40;;;7.60;99.90;;;;;;4987911;28;20034;-76
2021/12/29 09:02:42;;;;;;;4.68;1.50;;;7.70;99.90;;;;;;4978931;28;20478;-78
2021/12/29 09:05:09;;;;;;;5.25;1.30;;;7.70;99.90;;;;;;4974054;28;20054;-77
2021/12/29 09:07:35;;;;;;;8.98;1.90;;;7.70;99.90;;;;;;4975366;28;20149;-77
2021/12/29 09:10:03;;;;;;;4.20;1.30;;;7.70;99.90;;;;;;4970539;28;20034;-76
2021/12/29 09:12:29;;;;;;;8.20;1.30;;;7.80;99.90;;;;;;4957755;28;20034;-77
2021/12/29 09:14:55;;;;;;;8.63;1.83;;;7.80;99.90;;;;;;4970362;28;20031;-78
2021/12/29 09:17:21;;;;;;;7.82;2.03;;;7.90;99.90;;;;;;4970697;28;20185;-78
2021/12/29 09:19:47;;;;;;;5.45;1.48;;;8.00;99.90;;;;;;4970296;28;20042;-77
2021/12/29 09:22:15;;;;;;;11.07;4.00;;;8.00;99.90;;;;;;4968650;28;20019;-79
2021/12/29 09:24:43;;;;;;;14.70;7.70;;;8.00;99.90;;;;;;4969790;28;20479;-77
2021/12/29 09:27:09;;;;;;;14.95;5.47;;;8.00;99.90;;;;;;4968484;28;20814;-77
2021/12/29 09:29:35;;;;;;;5.75;3.05;;;7.90;99.90;;;;;;4969616;28;20037;-78
2021/12/29 09:32:05;;;;;;;6.47;2.50;;;7.90;99.90;;;;;;4970861;28;20391;-76
2021/12/29 09:34:32;;;;;;;6.65;2.00;;;7.90;99.90;;;;;;4937594;29;20031;-79
2021/12/29 09:37:00;;;;;;;9.15;1.42;;;8.00;99.90;;;;;;4981948;28;20534;-76
2021/12/29 09:39:27;;;;;;;6.03;1.67;;;8.00;99.90;;;;;;4993970;28;20054;-79
2021/12/29 09:41:53;;;;;;;5.88;1.63;;;8.00;99.90;;;;;;4993215;28;20085;-79
2021/12/29 09:44:19;;;;;;;6.53;1.40;;;8.00;99.90;;;;;;4990449;28;20070;-80
2021/12/29 09:46:48;;;;;;;5.28;1.27;;;8.00;99.90;;;;;;4993020;28;20034;-79
2021/12/29 09:49:14;;;;;;;2.53;0.93;;;8.00;99.90;;;;;;4991225;28;20033;-79
2021/12/29 09:51:40;;;;;;;8.02;1.30;;;7.90;99.90;;;;;;4993361;28;20088;-76
2021/12/29 09:54:06;;;;;;;4.63;0.95;;;8.00;99.90;;;;;;4990522;28;20435;-80
2021/12/29 09:56:32;;;;;;;5.82;1.10;;;8.00;99.90;;;;;;4993068;28;20034;-78
2021/12/29 09:58:59;;;;;;;4.57;1.42;;;8.00;99.90;;;;;;4993605;28;20034;-78
2021/12/29 10:01:25;;;;;;;2.63;1.00;;;8.00;99.90;;;;;;4991911;28;20100;-80
2021/12/29 10:03:51;;;;;;;4.22;0.70;;;7.90;99.90;;;;;;4991057;28;20022;-80
2021/12/29 10:06:17;;;;;;;5.03;1.08;;;7.90;99.90;;;;;;4993908;28;20741;-77
2021/12/29 10:08:47;;;;;;;2.72;1.17;;;8.00;99.90;;;;;;4993773;28;20137;-79
2021/12/29 10:11:24;;;;;;;4.07;1.03;;;7.90;99.90;;;;;;5002957;28;20045;-78
2021/12/29 10:13:50;;;;;;;4.95;1.00;;;7.90;99.90;;;;;;4998454;28;20022;-79
2021/12/29 10:16:24;;;;;;;4.50;1.00;;;7.90;99.90;;;;;;4992278;28;20073;-79
2021/12/29 10:18:58;;;;;;;2.53;1.00;;;7.90;99.90;;;;;;4991785;28;20030;-79
2021/12/29 10:21:27;;;;;;;4.78;1.13;;;7.90;99.90;;;;;;4994299;28;20038;-78
2021/12/29 10:23:55;;;;;;;2.42;1.00;;;7.90;99.90;;;;;;4987125;28;20040;-79
2021/12/29 10:26:20;;;;;;;3.10;1.20;;;7.90;99.90;;;;;;4989078;28;20155;-80
2021/12/29 10:28:48;;;;;;;2.75;1.00;;;7.90;99.90;;;;;;4988903;28;20113;-79
2021/12/29 10:31:24;;;;;;;6.15;1.38;;;7.90;99.90;;;;;;4993130;28;20177;-77
2021/12/29 10:34:01;;;;;;;4.65;1.02;;;7.90;99.90;;;;;;4991423;28;20026;-80
2021/12/29 10:36:31;;;;;;;4.93;1.25;;;7.90;99.90;;;;;;4987047;28;20175;-79
2021/12/29 10:39:10;;;;;;;4.18;0.98;;;7.90;99.90;;;;;;4992041;28;20035;-79
2021/12/29 10:41:58;;;;;;;7.18;1.10;;;7.90;99.90;;;;;;4991436;28;20046;-79
2021/12/29 10:44:35;;;;;;;4.30;0.80;;;7.80;99.90;;;;;;4989125;28;20097;-79
2021/12/29 10:47:23;;;;;;;2.85;0.70;;;7.80;99.90;;;;;;4992743;28;20096;-80
2021/12/29 10:49:54;;;;;;;3.58;0.85;;;7.80;99.90;;;;;;5002577;28;20836;-77
2021/12/29 10:52:35;;;;;;;3.08;1.08;;;7.80;99.90;;;;;;4991844;28;20033;-78
2021/12/29 10:55:05;;;;;;;2.95;0.80;;;7.80;99.90;;;;;;4991451;28;20031;-75
2021/12/29 10:57:30;;;;;;;6.88;0.88;;;7.80;99.90;;;;;;4990450;28;20038;-76
2021/12/29 10:59:58;;;;;;;7.53;1.27;;;7.90;99.90;;;;;;4998747;28;20429;-76
2021/12/29 11:02:33;;;;;;;3.97;1.00;;;7.90;99.90;;;;;;4989062;28;20042;-76
2021/12/29 11:05:03;;;;;;;3.65;1.33;;;8.00;99.90;;;;;;5000431;28;20511;-76
2021/12/29 11:07:31;;;;;;;8.93;1.45;;;8.00;99.90;;;;;;4994063;28;20038;-76
2021/12/29 11:10:11;;;;;;;3.70;1.30;;;8.10;99.90;;;;;;4989623;28;20046;-76
2021/12/29 11:12:44;;;;;;;3.20;1.17;;;8.20;99.90;;;;;;5006041;28;20045;-75
2021/12/29 11:15:19;;;;;;;4.15;1.50;;;8.30;99.90;;;;;;5002492;28;20470;-76
2021/12/29 11:17:46;;;;;;;4.47;1.40;;;8.30;99.90;;;;;;4992978;28;20472;-76
2021/12/29 11:20:22;;;;;;;4.35;1.40;;;8.40;99.90;;;;;;4991821;28;20033;-76
2021/12/29 11:22:48;;;;;;;2.60;1.00;;;8.50;99.90;;;;;;4996696;28;20041;-78
2021/12/29 11:25:14;;;;;;;4.78;1.52;;;8.60;99.90;;;;;;4992870;28;20033;-77
2021/12/29 11:27:40;;;;;;;5.45;1.42;;;8.70;99.90;;;;;;4991972;28;20113;-77
2021/12/29 11:30:11;;;;;;;3.88;1.30;;;8.70;99.90;;;;;;4993350;28;20109;-78
2021/12/29 11:32:41;;;;;;;;;;;8.70;99.90;;;;;;4990754;28;20034;-75
2021/12/29 11:35:12;;;;;;;7.07;1.10;;;8.70;99.90;;;;;;4991039;28;19910;-78
2021/12/29 11:37:42;;;;;;;4.93;1.60;;;8.70;99.90;;;;;;4990479;28;20306;-78
2021/12/29 11:40:12;;;;;;;3.38;1.33;;;8.70;99.90;;;;;;4994439;28;20099;-78
2021/12/29 11:42:38;;;;;;;9.02;1.60;;;8.70;99.90;;;;;;4992977;28;20161;-77
2021/12/29 11:45:05;;;;;;;6.60;1.60;;;8.70;99.90;;;;;;4994827;28;20073;-78
2021/12/29 11:47:31;;;;;;;3.28;1.13;;;8.70;99.90;;;;;;4989646;28;20066;-77
2021/12/29 11:49:56;;;;;;;5.50;1.27;;;8.80;99.90;;;;;;4990911;28;20068;-77
2021/12/29 11:52:38;;;;;;;3.17;1.00;;;8.80;99.90;;;;;;4988496;28;20034;-78
2021/12/29 11:55:17;;;;;;;5.03;1.10;;;8.90;99.90;;;;;;4987872;28;20100;-77
2021/12/29 11:57:44;;;;;;;6.13;1.10;;;9.00;99.90;;;;;;5005286;28;20038;-77
2021/12/29 12:00:17;;;;;;;8.65;1.17;;;9.00;99.90;;;;;;4990631;28;20539;-79
2021/12/29 12:02:45;;;;;;;6.93;1.25;;;9.00;99.90;;;;;;4990661;28;20030;-79
2021/12/29 12:05:17;;;;;;;6.22;1.10;;;8.90;99.90;;;;;;4992872;28;20529;-79
2021/12/29 12:07:43;;;;;;;3.83;1.25;;;9.00;99.90;;;;;;4990587;28;20088;-76
2021/12/29 12:10:23;;;;;;;8.40;1.50;;;9.00;99.90;;;;;;4990135;28;20042;-78
2021/12/29 12:12:52;;;;;;;7.10;1.05;;;9.00;99.90;;;;;;4990254;28;20042;-77
2021/12/29 12:15:38;;;;;;;3.03;1.30;;;9.00;99.90;;;;;;4989840;28;20038;-77
2021/12/29 12:18:07;;;;;;;2.47;0.85;;;9.10;99.90;;;;;;4989069;28;20038;-77
2021/12/29 12:20:50;;;;;;;4.82;1.27;;;9.00;99.90;;;;;;4989586;28;20081;-77
2021/12/29 12:23:41;;;;;;;3.50;0.90;;;9.00;99.90;;;;;;4989618;28;20026;-75
2021/12/29 12:26:09;;;;;;;5.32;1.08;;;9.00;99.90;;;;;;4988401;28;20042;-77
2021/12/29 12:28:46;;;;;;;5.40;0.88;;;8.90;99.90;;;;;;4989215;28;20034;-78
2021/12/29 12:31:25;;;;;;;3.05;0.90;;;9.00;99.90;;;;;;4989699;28;20041;-79
2021/12/29 12:33:53;;;;;;;4.65;0.85;;;9.00;99.90;;;;;;4990458;28;20034;-77
2021/12/29 12:36:19;;;;;;;4.78;1.50;;;9.00;99.90;;;;;;4987991;28;20058;-77
2021/12/29 12:38:47;;;;;;;3.95;1.17;;;9.20;99.90;;;;;;4990597;28;20042;-77
2021/12/29 12:41:16;;;;;;;2.65;0.82;;;9.20;99.90;;;;;;4989188;28;20030;-77
2021/12/29 12:43:53;;;;;;;5.60;0.95;;;9.10;99.90;;;;;;4990022;28;20031;-78
2021/12/29 12:46:29;;;;;;;5.53;1.20;;;9.10;99.90;;;;;;4987891;28;20030;-76
2021/12/29 12:48:55;;;;;;;5.50;1.20;;;9.10;99.90;;;;;;4988423;28;20049;-76
2021/12/29 12:51:21;;;;;;;8.35;1.55;;;9.00;99.90;;;;;;4989163;28;20026;-77
2021/12/29 12:53:48;;;;;;;10.07;1.75;;;9.00;99.90;;;;;;4989905;28;20030;-77
2021/12/29 12:56:19;;;;;;;5.90;0.80;;;9.00;99.90;;;;;;4989519;28;20056;-80
2021/12/29 12:58:48;;;;;;;4.68;1.13;;;9.00;99.90;;;;;;4989659;28;20034;-77
2021/12/29 13:01:25;;;;;;;3.45;1.17;;;9.00;99.90;;;;;;4987542;28;20056;-79
2021/12/29 13:04:05;;;;;;;4.65;1.05;;;9.00;99.90;;;;;;4993619;28;20026;-75
2021/12/29 13:06:34;;;;;;;4.25;0.70;;;9.00;99.90;;;;;;4988619;28;20034;-76